sensor_id;sensor_type;location;lat;lon;timestamp;pressure;altitude;pressure_sealevel;temperature;humidity
51528;BME280;37612;51.768;21.590;2022-07-23T00:00:29;99963.74;;;20.55;73.21
51528;BME280;37612;51.768;21.590;2022-07-23T00:04:38;99963.02;;;20.50;73.49
51528;BME280;37612;51.768;21.590;2022-07-23T00:08:39;99961.98;;;20.47;73.68
51528;BME280;37612;51.768;21.590;2022-07-23T00:12:41;99966.67;;;20.43;73.77
51528;BME280;37612;51.768;21.590;2022-07-23T00:16:43;99964.96;;;20.38;74.29
51528;BME280;37612;51.768;21.590;2022-07-23T00:20:45;99972.77;;;20.33;74.51
51528;BME280;37612;51.768;21.590;2022-07-23T00:24:47;99971.81;;;20.21;74.75
51528;BME280;37612;51.768;21.590;2022-07-23T00:28:51;99975.07;;;20.07;74.73
51528;BME280;37612;51.768;21.590;2022-07-23T00:32:55;99971.23;;;20.06;75.04
51528;BME280;37612;51.768;21.590;2022-07-23T00:36:59;99973.55;;;20.02;74.80
51528;BME280;37612;51.768;21.590;2022-07-23T00:41:01;99970.64;;;19.94;74.77
51528;BME280;37612;51.768;21.590;2022-07-23T00:45:06;99967.42;;;19.84;74.91
51528;BME280;37612;51.768;21.590;2022-07-23T00:49:11;99972.77;;;19.73;75.19
51528;BME280;37612;51.768;21.590;2022-07-23T00:53:13;99969.52;;;19.67;75.63
51528;BME280;37612;51.768;21.590;2022-07-23T00:57:16;99973.17;;;19.66;75.85
51528;BME280;37612;51.768;21.590;2022-07-23T01:01:18;99971.84;;;19.65;76.00
51528;BME280;37612;51.768;21.590;2022-07-23T01:05:20;99969.92;;;19.61;76.12
51528;BME280;37612;51.768;21.590;2022-07-23T01:09:25;99968.86;;;19.58;76.38
51528;BME280;37612;51.768;21.590;2022-07-23T01:13:27;99968.86;;;19.54;76.49
51528;BME280;37612;51.768;21.590;2022-07-23T01:17:29;99966.27;;;19.50;76.47
51528;BME280;37612;51.768;21.590;2022-07-23T01:21:31;99967.45;;;19.45;76.56
51528;BME280;37612;51.768;21.590;2022-07-23T01:25:32;99967.13;;;19.43;76.93
51528;BME280;37612;51.768;21.590;2022-07-23T01:29:34;99964.42;;;19.45;77.04
51528;BME280;37612;51.768;21.590;2022-07-23T01:33:36;99965.65;;;19.42;76.83
51528;BME280;37612;51.768;21.590;2022-07-23T01:37:38;99962.42;;;19.35;76.88
51528;BME280;37612;51.768;21.590;2022-07-23T01:41:39;99961.13;;;19.26;76.95
51528;BME280;37612;51.768;21.590;2022-07-23T01:45:41;99965.12;;;19.15;77.13
51528;BME280;37612;51.768;21.590;2022-07-23T01:49:46;99965.27;;;19.07;77.25
51528;BME280;37612;51.768;21.590;2022-07-23T01:53:48;99968.48;;;19.06;77.69
51528;BME280;37612;51.768;21.590;2022-07-23T01:57:49;99970.67;;;19.14;78.46
51528;BME280;37612;51.768;21.590;2022-07-23T02:01:51;99968.00;;;19.21;78.56
51528;BME280;37612;51.768;21.590;2022-07-23T02:05:53;99972.92;;;19.24;78.39
51528;BME280;37612;51.768;21.590;2022-07-23T02:09:55;99967.13;;;19.24;78.36
51528;BME280;37612;51.768;21.590;2022-07-23T02:13:57;99967.24;;;19.17;78.32
51528;BME280;37612;51.768;21.590;2022-07-23T02:17:59;99965.84;;;19.12;78.42
51528;BME280;37612;51.768;21.590;2022-07-23T02:22:00;99962.77;;;19.05;77.87
51528;BME280;37612;51.768;21.590;2022-07-23T02:26:02;99964.27;;;18.97;78.09
51528;BME280;37612;51.768;21.590;2022-07-23T02:30:04;99966.69;;;18.88;78.22
51528;BME280;37612;51.768;21.590;2022-07-23T02:34:05;99964.34;;;18.85;78.97
51528;BME280;37612;51.768;21.590;2022-07-23T02:38:12;99956.79;;;18.79;78.98
51528;BME280;37612;51.768;21.590;2022-07-23T02:42:14;99950.23;;;18.77;79.23
51528;BME280;37612;51.768;21.590;2022-07-23T02:46:18;99951.24;;;18.75;79.36
51528;BME280;37612;51.768;21.590;2022-07-23T02:50:20;99949.24;;;18.78;79.52
51528;BME280;37612;51.768;21.590;2022-07-23T02:54:25;99954.95;;;18.74;79.42
51528;BME280;37612;51.768;21.590;2022-07-23T02:58:27;99958.84;;;18.70;79.58
51528;BME280;37612;51.768;21.590;2022-07-23T03:02:28;99960.91;;;18.73;79.80
51528;BME280;37612;51.768;21.590;2022-07-23T03:06:30;99954.48;;;18.71;79.60
51528;BME280;37612;51.768;21.590;2022-07-23T03:10:32;99955.25;;;18.70;79.67
51528;BME280;37612;51.768;21.590;2022-07-23T03:14:33;99957.61;;;18.68;79.53
51528;BME280;37612;51.768;21.590;2022-07-23T03:18:35;99949.52;;;18.62;79.53
51528;BME280;37612;51.768;21.590;2022-07-23T03:22:37;99946.04;;;18.61;80.17
51528;BME280;37612;51.768;21.590;2022-07-23T03:26:38;99941.06;;;18.58;80.21
51528;BME280;37612;51.768;21.590;2022-07-23T03:30:41;99940.54;;;18.57;80.34
51528;BME280;37612;51.768;21.590;2022-07-23T03:34:46;99944.70;;;18.62;80.70
51528;BME280;37612;51.768;21.590;2022-07-23T03:38:48;99947.96;;;18.69;80.81
51528;BME280;37612;51.768;21.590;2022-07-23T03:42:50;99950.27;;;18.72;80.62
51528;BME280;37612;51.768;21.590;2022-07-23T03:46:52;99950.09;;;18.68;80.41
51528;BME280;37612;51.768;21.590;2022-07-23T03:50:54;99959.00;;;18.66;80.76
51528;BME280;37612;51.768;21.590;2022-07-23T03:55:43;99962.73;;;18.67;80.43
51528;BME280;37612;51.768;21.590;2022-07-23T04:00:26;99963.69;;;18.67;81.06
51528;BME280;37612;51.768;21.590;2022-07-23T04:05:08;99969.08;;;18.79;81.18
51528;BME280;37612;51.768;21.590;2022-07-23T04:09:52;99970.67;;;18.89;81.24
51528;BME280;37612;51.768;21.590;2022-07-23T04:14:32;99974.91;;;18.97;81.28
51528;BME280;37612;51.768;21.590;2022-07-23T04:19:16;99976.02;;;19.06;81.43
51528;BME280;37612;51.768;21.590;2022-07-23T04:23:18;99973.78;;;19.18;81.32
51528;BME280;37612;51.768;21.590;2022-07-23T04:27:41;99973.21;;;19.29;81.19
51528;BME280;37612;51.768;21.590;2022-07-23T04:31:43;99968.19;;;19.41;81.56
51528;BME280;37612;51.768;21.590;2022-07-23T04:35:44;99967.30;;;19.58;81.34
51528;BME280;37612;51.768;21.590;2022-07-23T04:39:46;99961.73;;;19.70;81.45
51528;BME280;37612;51.768;21.590;2022-07-23T04:43:51;99956.15;;;19.82;81.99
51528;BME280;37612;51.768;21.590;2022-07-23T04:48:17;99958.34;;;19.98;82.15
51528;BME280;37612;51.768;21.590;2022-07-23T04:52:22;99952.58;;;20.15;82.41
51528;BME280;37612;51.768;21.590;2022-07-23T04:56:32;99949.75;;;20.39;82.58
51528;BME280;37612;51.768;21.590;2022-07-23T05:00:56;99949.04;;;20.66;82.21
51528;BME280;37612;51.768;21.590;2022-07-23T05:05:02;99951.32;;;21.01;82.23
51528;BME280;37612;51.768;21.590;2022-07-23T05:09:32;99958.30;;;21.53;81.77
51528;BME280;37612;51.768;21.590;2022-07-23T05:13:57;99958.80;;;22.08;81.54
51528;BME280;37612;51.768;21.590;2022-07-23T05:18:27;99954.04;;;22.60;81.12
51528;BME280;37612;51.768;21.590;2022-07-23T05:22:29;99952.61;;;22.81;80.10
51528;BME280;37612;51.768;21.590;2022-07-23T05:26:30;99952.03;;;22.98;79.47
51528;BME280;37612;51.768;21.590;2022-07-23T05:30:35;99951.57;;;23.10;78.99
51528;BME280;37612;51.768;21.590;2022-07-23T05:35:06;99953.77;;;23.28;78.79
51528;BME280;37612;51.768;21.590;2022-07-23T05:39:11;99958.52;;;23.44;78.42
51528;BME280;37612;51.768;21.590;2022-07-23T05:43:39;99952.70;;;23.61;78.15
51528;BME280;37612;51.768;21.590;2022-07-23T05:48:18;99950.64;;;24.05;77.72
51528;BME280;37612;51.768;21.590;2022-07-23T05:53:08;99948.48;;;24.39;76.70
51528;BME280;37612;51.768;21.590;2022-07-23T05:57:50;99950.69;;;24.34;76.05
51528;BME280;37612;51.768;21.590;2022-07-23T06:02:24;99952.58;;;24.38;75.88
51528;BME280;37612;51.768;21.590;2022-07-23T06:06:26;99956.30;;;24.44;75.65
51528;BME280;37612;51.768;21.590;2022-07-23T06:10:38;99964.20;;;24.48;75.27
51528;BME280;37612;51.768;21.590;2022-07-23T06:15:05;99956.82;;;24.55;75.05
51528;BME280;37612;51.768;21.590;2022-07-23T06:19:57;99961.55;;;24.67;74.97
51528;BME280;37612;51.768;21.590;2022-07-23T06:24:27;99964.30;;;24.75;74.06
51528;BME280;37612;51.768;21.590;2022-07-23T06:29:02;99959.75;;;24.80;73.26
51528;BME280;37612;51.768;21.590;2022-07-23T06:33:37;99960.72;;;24.84;73.09
51528;BME280;37612;51.768;21.590;2022-07-23T06:38:20;99964.46;;;25.01;72.78
51528;BME280;37612;51.768;21.590;2022-07-23T06:42:58;99967.20;;;25.15;72.23
51528;BME280;37612;51.768;21.590;2022-07-23T06:47:21;99967.10;;;25.35;72.09
51528;BME280;37612;51.768;21.590;2022-07-23T06:51:47;99969.13;;;25.65;71.23
51528;BME280;37612;51.768;21.590;2022-07-23T06:56:27;99965.89;;;25.85;70.51
51528;BME280;37612;51.768;21.590;2022-07-23T07:00:32;99965.80;;;26.07;69.95
51528;BME280;37612;51.768;21.590;2022-07-23T07:04:36;99961.33;;;26.28;69.14
51528;BME280;37612;51.768;21.590;2022-07-23T07:08:49;99961.29;;;26.54;68.10
51528;BME280;37612;51.768;21.590;2022-07-23T07:12:51;99954.98;;;26.73;67.61
51528;BME280;37612;51.768;21.590;2022-07-23T07:16:53;99956.31;;;26.98;67.08
51528;BME280;37612;51.768;21.590;2022-07-23T07:21:00;99954.31;;;27.19;66.52
51528;BME280;37612;51.768;21.590;2022-07-23T07:25:24;99951.48;;;27.36;64.90
51528;BME280;37612;51.768;21.590;2022-07-23T07:29:49;99949.57;;;27.47;63.63
51528;BME280;37612;51.768;21.590;2022-07-23T07:34:08;99945.91;;;27.72;63.55
51528;BME280;37612;51.768;21.590;2022-07-23T07:38:31;99943.84;;;27.89;62.55
51528;BME280;37612;51.768;21.590;2022-07-23T07:43:13;99944.36;;;28.08;62.19
51528;BME280;37612;51.768;21.590;2022-07-23T07:47:36;99949.47;;;28.20;61.27
51528;BME280;37612;51.768;21.590;2022-07-23T07:51:37;99950.96;;;28.32;59.89
51528;BME280;37612;51.768;21.590;2022-07-23T07:56:10;99951.37;;;28.32;58.89
51528;BME280;37612;51.768;21.590;2022-07-23T08:00:55;99953.55;;;28.47;58.66
51528;BME280;37612;51.768;21.590;2022-07-23T08:05:31;99950.64;;;28.70;57.66
51528;BME280;37612;51.768;21.590;2022-07-23T08:10:05;99954.42;;;28.85;57.43
51528;BME280;37612;51.768;21.590;2022-07-23T08:14:21;99950.76;;;29.01;56.84
51528;BME280;37612;51.768;21.590;2022-07-23T08:19:19;99949.23;;;29.28;56.66
51528;BME280;37612;51.768;21.590;2022-07-23T08:24:00;99947.86;;;29.49;55.77
51528;BME280;37612;51.768;21.590;2022-07-23T08:28:25;99949.80;;;29.72;55.21
51528;BME280;37612;51.768;21.590;2022-07-23T08:33:00;99941.64;;;29.75;53.59
51528;BME280;37612;51.768;21.590;2022-07-23T08:37:45;99939.48;;;30.01;53.88
51528;BME280;37612;51.768;21.590;2022-07-23T08:41:53;99941.09;;;30.19;53.20
51528;BME280;37612;51.768;21.590;2022-07-23T08:46:17;99929.91;;;30.32;51.72
51528;BME280;37612;51.768;21.590;2022-07-23T08:50:26;99930.85;;;30.28;50.19
51528;BME280;37612;51.768;21.590;2022-07-23T08:55:04;99929.50;;;30.44;49.60
51528;BME280;37612;51.768;21.590;2022-07-23T08:59:09;99935.23;;;30.55;48.95
51528;BME280;37612;51.768;21.590;2022-07-23T09:03:41;99934.11;;;30.75;48.59
51528;BME280;37612;51.768;21.590;2022-07-23T09:12:11;99931.02;;;30.69;45.98
51528;BME280;37612;51.768;21.590;2022-07-23T09:16:22;99935.48;;;30.79;46.20
51528;BME280;37612;51.768;21.590;2022-07-23T09:20:30;99935.83;;;30.82;44.76
51528;BME280;37612;51.768;21.590;2022-07-23T09:24:32;99934.25;;;30.85;44.32
51528;BME280;37612;51.768;21.590;2022-07-23T09:28:41;99934.94;;;31.04;44.57
51528;BME280;37612;51.768;21.590;2022-07-23T09:33:10;99927.86;;;31.15;42.81
51528;BME280;37612;51.768;21.590;2022-07-23T09:37:33;99924.16;;;31.27;42.09
51528;BME280;37612;51.768;21.590;2022-07-23T09:41:44;99921.06;;;31.43;42.17
51528;BME280;37612;51.768;21.590;2022-07-23T09:46:25;99915.21;;;31.64;41.74
51528;BME280;37612;51.768;21.590;2022-07-23T09:50:32;99923.50;;;31.59;40.34
51528;BME280;37612;51.768;21.590;2022-07-23T09:54:50;99914.99;;;31.54;40.38
51528;BME280;37612;51.768;21.590;2022-07-23T09:59:37;99917.82;;;31.53;39.80
51528;BME280;37612;51.768;21.590;2022-07-23T10:04:09;99906.86;;;31.45;39.53
51528;BME280;37612;51.768;21.590;2022-07-23T10:08:35;99907.02;;;31.37;39.46
51528;BME280;37612;51.768;21.590;2022-07-23T10:13:06;99906.36;;;31.29;38.86
51528;BME280;37612;51.768;21.590;2022-07-23T10:17:39;99906.60;;;31.32;39.28
51528;BME280;37612;51.768;21.590;2022-07-23T10:22:10;99907.65;;;31.49;39.13
51528;BME280;37612;51.768;21.590;2022-07-23T10:26:29;99904.19;;;31.46;38.67
51528;BME280;37612;51.768;21.590;2022-07-23T10:35:03;99884.54;;;31.63;38.39
51528;BME280;37612;51.768;21.590;2022-07-23T10:39:31;99877.84;;;31.72;38.57
51528;BME280;37612;51.768;21.590;2022-07-23T10:44:15;99874.03;;;31.89;39.20
51528;BME280;37612;51.768;21.590;2022-07-23T10:48:41;99878.33;;;32.07;37.94
51528;BME280;37612;51.768;21.590;2022-07-23T10:53:10;99883.64;;;32.00;37.61
51528;BME280;37612;51.768;21.590;2022-07-23T10:57:32;99879.00;;;31.90;37.91
51528;BME280;37612;51.768;21.590;2022-07-23T11:02:21;99872.05;;;31.92;37.63
51528;BME280;37612;51.768;21.590;2022-07-23T11:07:06;99873.70;;;32.01;37.18
51528;BME280;37612;51.768;21.590;2022-07-23T11:19:05;99878.08;;;31.67;36.74
51528;BME280;37612;51.768;21.590;2022-07-23T11:23:35;99873.21;;;31.45;36.50
51528;BME280;37612;51.768;21.590;2022-07-23T11:27:52;99865.88;;;31.36;37.38
51528;BME280;37612;51.768;21.590;2022-07-23T11:32:18;99867.29;;;31.52;37.39
51528;BME280;37612;51.768;21.590;2022-07-23T11:36:23;99878.08;;;31.62;36.34
51528;BME280;37612;51.768;21.590;2022-07-23T11:40:29;99878.62;;;31.68;36.72
51528;BME280;37612;51.768;21.590;2022-07-23T11:44:38;99870.79;;;31.88;36.77
51528;BME280;37612;51.768;21.590;2022-07-23T11:49:00;99876.55;;;31.91;36.26
51528;BME280;37612;51.768;21.590;2022-07-23T11:57:34;99861.80;;;31.88;36.61
51528;BME280;37612;51.768;21.590;2022-07-23T12:02:06;99856.30;;;31.75;36.00
51528;BME280;37612;51.768;21.590;2022-07-23T12:06:46;99841.44;;;31.87;36.04
51528;BME280;37612;51.768;21.590;2022-07-23T12:10:54;99836.30;;;32.02;35.99
51528;BME280;37612;51.768;21.590;2022-07-23T12:15:19;99831.26;;;32.19;35.26
51528;BME280;37612;51.768;21.590;2022-07-23T12:19:30;99830.70;;;32.22;34.42
51528;BME280;37612;51.768;21.590;2022-07-23T12:24:04;99823.96;;;32.25;34.90
51528;BME280;37612;51.768;21.590;2022-07-23T12:28:41;99825.69;;;32.43;34.73
51528;BME280;37612;51.768;21.590;2022-07-23T12:33:03;99819.64;;;32.39;34.78
51528;BME280;37612;51.768;21.590;2022-07-23T12:37:31;99816.98;;;32.53;33.77
51528;BME280;37612;51.768;21.590;2022-07-23T12:42:13;99811.30;;;32.49;33.86
51528;BME280;37612;51.768;21.590;2022-07-23T12:46:36;99805.67;;;32.56;34.44
51528;BME280;37612;51.768;21.590;2022-07-23T12:55:44;99797.30;;;32.89;34.37
51528;BME280;37612;51.768;21.590;2022-07-23T13:00:07;99790.02;;;32.82;33.99
51528;BME280;37612;51.768;21.590;2022-07-23T13:04:10;99780.02;;;32.99;34.62
51528;BME280;37612;51.768;21.590;2022-07-23T13:08:18;99781.81;;;33.12;33.67
51528;BME280;37612;51.768;21.590;2022-07-23T13:12:19;99776.89;;;33.13;33.25
51528;BME280;37612;51.768;21.590;2022-07-23T13:16:27;99774.72;;;32.99;33.32
51528;BME280;37612;51.768;21.590;2022-07-23T13:20:39;99772.18;;;32.89;33.27
51528;BME280;37612;51.768;21.590;2022-07-23T13:25:15;99758.58;;;32.91;33.42
51528;BME280;37612;51.768;21.590;2022-07-23T13:29:19;99753.22;;;33.02;33.84
51528;BME280;37612;51.768;21.590;2022-07-23T13:33:22;99750.16;;;33.17;33.79
51528;BME280;37612;51.768;21.590;2022-07-23T13:37:25;99738.95;;;33.29;33.60
51528;BME280;37612;51.768;21.590;2022-07-23T13:41:47;99730.66;;;33.44;33.77
51528;BME280;37612;51.768;21.590;2022-07-23T13:45:49;99729.83;;;33.48;33.21
51528;BME280;37612;51.768;21.590;2022-07-23T13:49:53;99731.52;;;33.44;33.03
51528;BME280;37612;51.768;21.590;2022-07-23T13:53:55;99739.63;;;33.48;32.90
51528;BME280;37612;51.768;21.590;2022-07-23T13:58:15;99740.88;;;33.51;32.65
51528;BME280;37612;51.768;21.590;2022-07-23T14:02:38;99748.48;;;33.50;32.68
51528;BME280;37612;51.768;21.590;2022-07-23T14:11:16;99754.77;;;33.44;32.71
51528;BME280;37612;51.768;21.590;2022-07-23T14:15:58;99754.69;;;33.30;32.77
51528;BME280;37612;51.768;21.590;2022-07-23T14:20:38;99752.23;;;33.07;32.95
51528;BME280;37612;51.768;21.590;2022-07-23T14:24:54;99752.52;;;32.98;33.68
51528;BME280;37612;51.768;21.590;2022-07-23T14:29:20;99753.52;;;33.04;33.45
51528;BME280;37612;51.768;21.590;2022-07-23T14:34:08;99758.83;;;33.01;33.68
51528;BME280;37612;51.768;21.590;2022-07-23T14:43:03;99756.02;;;32.66;34.43
51528;BME280;37612;51.768;21.590;2022-07-23T14:47:32;99748.65;;;32.57;34.75
51528;BME280;37612;51.768;21.590;2022-07-23T14:51:44;99749.04;;;32.47;35.52
51528;BME280;37612;51.768;21.590;2022-07-23T14:56:21;99754.10;;;32.29;35.70
51528;BME280;37612;51.768;21.590;2022-07-23T15:01:02;99747.17;;;31.94;35.63
51528;BME280;37612;51.768;21.590;2022-07-23T15:05:23;99753.90;;;31.61;35.90
51528;BME280;37612;51.768;21.590;2022-07-23T15:10:20;99748.46;;;31.26;36.47
51528;BME280;37612;51.768;21.590;2022-07-23T15:15:00;99748.48;;;31.01;37.75
51528;BME280;37612;51.768;21.590;2022-07-23T15:19:44;99745.25;;;30.84;38.86
51528;BME280;37612;51.768;21.590;2022-07-23T15:24:14;99743.48;;;30.65;39.09
51528;BME280;37612;51.768;21.590;2022-07-23T15:29:00;99746.78;;;30.49;39.77
51528;BME280;37612;51.768;21.590;2022-07-23T15:33:44;99753.05;;;30.33;40.27
51528;BME280;37612;51.768;21.590;2022-07-23T15:38:07;99744.39;;;30.08;41.02
51528;BME280;37612;51.768;21.590;2022-07-23T15:42:50;99741.35;;;29.95;41.78
51528;BME280;37612;51.768;21.590;2022-07-23T15:47:19;99761.52;;;29.85;43.11
51528;BME280;37612;51.768;21.590;2022-07-23T15:51:27;99802.13;;;28.88;46.12
51528;BME280;37612;51.768;21.590;2022-07-23T15:55:33;99817.35;;;27.50;48.70
51528;BME280;37612;51.768;21.590;2022-07-23T16:00:00;99850.65;;;26.38;50.81
51528;BME280;37612;51.768;21.590;2022-07-23T16:04:20;99865.95;;;25.58;53.25
51528;BME280;37612;51.768;21.590;2022-07-23T16:09:08;99867.68;;;25.03;55.07
51528;BME280;37612;51.768;21.590;2022-07-23T16:13:38;99874.00;;;24.71;56.83
51528;BME280;37612;51.768;21.590;2022-07-23T16:17:40;99875.58;;;24.41;58.33
51528;BME280;37612;51.768;21.590;2022-07-23T16:22:21;99883.89;;;24.01;60.40
51528;BME280;37612;51.768;21.590;2022-07-23T16:26:23;99886.11;;;23.70;61.57
51528;BME280;37612;51.768;21.590;2022-07-23T16:30:32;99886.89;;;23.58;62.58
51528;BME280;37612;51.768;21.590;2022-07-23T16:34:44;99872.70;;;23.69;62.57
51528;BME280;37612;51.768;21.590;2022-07-23T16:38:46;99877.18;;;23.49;64.35
51528;BME280;37612;51.768;21.590;2022-07-23T16:42:52;99867.98;;;23.32;63.37
51528;BME280;37612;51.768;21.590;2022-07-23T16:47:17;99864.27;;;23.17;65.02
51528;BME280;37612;51.768;21.590;2022-07-23T16:51:37;99862.08;;;22.93;65.67
51528;BME280;37612;51.768;21.590;2022-07-23T16:56:03;99861.77;;;22.78;66.53
51528;BME280;37612;51.768;21.590;2022-07-23T17:00:45;99860.56;;;22.68;66.82
51528;BME280;37612;51.768;21.590;2022-07-23T17:10:06;99858.80;;;22.51;67.17
51528;BME280;37612;51.768;21.590;2022-07-23T17:14:16;99854.02;;;22.48;66.73
51528;BME280;37612;51.768;21.590;2022-07-23T17:18:21;99856.52;;;22.46;66.53
51528;BME280;37612;51.768;21.590;2022-07-23T17:22:38;99849.88;;;22.38;66.88
51528;BME280;37612;51.768;21.590;2022-07-23T17:27:03;99855.82;;;22.33;67.64
51528;BME280;37612;51.768;21.590;2022-07-23T17:31:05;99844.13;;;22.26;67.98
51528;BME280;37612;51.768;21.590;2022-07-23T17:35:07;99844.35;;;22.09;68.72
51528;BME280;37612;51.768;21.590;2022-07-23T17:39:12;99844.55;;;21.96;69.49
51528;BME280;37612;51.768;21.590;2022-07-23T17:43:20;99839.88;;;21.86;69.44
51528;BME280;37612;51.768;21.590;2022-07-23T17:47:26;99834.15;;;21.82;69.65
51528;BME280;37612;51.768;21.590;2022-07-23T17:51:31;99830.03;;;21.74;70.54
51528;BME280;37612;51.768;21.590;2022-07-23T17:55:42;99843.05;;;21.67;71.12
51528;BME280;37612;51.768;21.590;2022-07-23T17:59:47;99837.19;;;21.64;71.10
51528;BME280;37612;51.768;21.590;2022-07-23T18:03:51;99847.92;;;21.62;70.68
51528;BME280;37612;51.768;21.590;2022-07-23T18:07:53;99847.16;;;21.61;71.18
51528;BME280;37612;51.768;21.590;2022-07-23T18:12:18;99829.05;;;21.63;70.98
51528;BME280;37612;51.768;21.590;2022-07-23T18:16:34;99831.09;;;21.63;70.97
51528;BME280;37612;51.768;21.590;2022-07-23T18:20:51;99819.75;;;21.57;71.44
51528;BME280;37612;51.768;21.590;2022-07-23T18:24:58;99815.30;;;21.54;71.46
51528;BME280;37612;51.768;21.590;2022-07-23T18:29:20;99817.27;;;21.53;72.06
51528;BME280;37612;51.768;21.590;2022-07-23T18:33:22;99800.33;;;21.45;72.29
51528;BME280;37612;51.768;21.590;2022-07-23T18:37:27;99803.99;;;21.41;72.22
51528;BME280;37612;51.768;21.590;2022-07-23T18:41:29;99829.72;;;21.38;72.26
51528;BME280;37612;51.768;21.590;2022-07-23T18:45:31;99838.89;;;21.37;72.43
51528;BME280;37612;51.768;21.590;2022-07-23T18:49:33;99838.54;;;21.36;72.56
51528;BME280;37612;51.768;21.590;2022-07-23T18:53:35;99833.55;;;21.34;72.68
51528;BME280;37612;51.768;21.590;2022-07-23T18:57:37;99827.42;;;21.34;72.95
51528;BME280;37612;51.768;21.590;2022-07-23T19:01:39;99830.82;;;21.38;72.80
51528;BME280;37612;51.768;21.590;2022-07-23T19:05:41;99829.69;;;21.39;72.63
51528;BME280;37612;51.768;21.590;2022-07-23T19:09:45;99834.54;;;21.37;72.58
51528;BME280;37612;51.768;21.590;2022-07-23T19:13:48;99838.70;;;21.33;72.59
51528;BME280;37612;51.768;21.590;2022-07-23T19:17:53;99839.88;;;21.35;72.72
51528;BME280;37612;51.768;21.590;2022-07-23T19:22:14;99827.98;;;21.43;72.72
51528;BME280;37612;51.768;21.590;2022-07-23T19:26:16;99834.87;;;21.45;72.62
51528;BME280;37612;51.768;21.590;2022-07-23T19:30:18;99840.59;;;21.44;72.70
51528;BME280;37612;51.768;21.590;2022-07-23T19:34:20;99833.95;;;21.43;72.71
51528;BME280;37612;51.768;21.590;2022-07-23T19:38:21;99834.11;;;21.42;72.69
51528;BME280;37612;51.768;21.590;2022-07-23T19:42:33;99838.19;;;21.39;72.93
51528;BME280;37612;51.768;21.590;2022-07-23T19:47:21;99846.91;;;21.29;72.91
51528;BME280;37612;51.768;21.590;2022-07-23T19:51:55;99853.77;;;21.18;73.25
51528;BME280;37612;51.768;21.590;2022-07-23T19:56:09;99859.72;;;21.10;73.28
51528;BME280;37612;51.768;21.590;2022-07-23T20:00:13;99863.48;;;21.05;73.39
51528;BME280;37612;51.768;21.590;2022-07-23T20:04:15;99865.16;;;20.99;73.72
51528;BME280;37612;51.768;21.590;2022-07-23T20:08:17;99861.02;;;20.95;73.72
51528;BME280;37612;51.768;21.590;2022-07-23T20:12:35;99863.42;;;20.90;73.82
51528;BME280;37612;51.768;21.590;2022-07-23T20:17:13;99868.88;;;20.74;73.92
51528;BME280;37612;51.768;21.590;2022-07-23T20:21:32;99878.08;;;20.64;74.41
51528;BME280;37612;51.768;21.590;2022-07-23T20:30:11;99909.08;;;20.54;76.41
51528;BME280;37612;51.768;21.590;2022-07-23T20:34:53;99914.66;;;20.36;78.09
51528;BME280;37612;51.768;21.590;2022-07-23T20:39:14;99910.30;;;20.33;78.40
51528;BME280;37612;51.768;21.590;2022-07-23T20:43:16;99919.67;;;20.35;78.16
51528;BME280;37612;51.768;21.590;2022-07-23T20:47:58;99920.80;;;20.39;78.23
51528;BME280;37612;51.768;21.590;2022-07-23T20:52:13;99923.48;;;20.42;78.11
51528;BME280;37612;51.768;21.590;2022-07-23T20:56:17;99916.44;;;20.44;78.05
51528;BME280;37612;51.768;21.590;2022-07-23T21:00:22;99916.67;;;20.46;78.22
51528;BME280;37612;51.768;21.590;2022-07-23T21:04:24;99921.98;;;20.47;78.28
51528;BME280;37612;51.768;21.590;2022-07-23T21:08:26;99919.84;;;20.46;78.23
51528;BME280;37612;51.768;21.590;2022-07-23T21:12:31;99924.38;;;20.45;77.98
51528;BME280;37612;51.768;21.590;2022-07-23T21:16:32;99924.59;;;20.43;77.76
51528;BME280;37612;51.768;21.590;2022-07-23T21:20:34;99933.41;;;20.43;77.87
51528;BME280;37612;51.768;21.590;2022-07-23T21:24:54;99948.87;;;20.49;77.85
51528;BME280;37612;51.768;21.590;2022-07-23T21:28:56;99952.48;;;20.48;77.97
51528;BME280;37612;51.768;21.590;2022-07-23T21:32:58;99961.50;;;20.47;77.89
51528;BME280;37612;51.768;21.590;2022-07-23T21:37:02;99960.29;;;20.46;77.81
51528;BME280;37612;51.768;21.590;2022-07-23T21:41:07;99957.77;;;20.43;77.69
51528;BME280;37612;51.768;21.590;2022-07-23T21:45:33;99961.73;;;20.39;77.76
51528;BME280;37612;51.768;21.590;2022-07-23T21:50:25;99963.93;;;20.27;78.12
51528;BME280;37612;51.768;21.590;2022-07-23T21:54:36;99962.27;;;20.23;78.18
51528;BME280;37612;51.768;21.590;2022-07-23T21:59:21;99963.74;;;20.17;78.50
51528;BME280;37612;51.768;21.590;2022-07-23T22:03:28;99972.11;;;20.12;78.56
51528;BME280;37612;51.768;21.590;2022-07-23T22:07:32;99974.19;;;20.08;78.78
51528;BME280;37612;51.768;21.590;2022-07-23T22:11:34;99971.46;;;20.05;78.82
51528;BME280;37612;51.768;21.590;2022-07-23T22:15:35;99980.94;;;20.06;78.96
51528;BME280;37612;51.768;21.590;2022-07-23T22:19:37;99982.43;;;20.06;79.12
51528;BME280;37612;51.768;21.590;2022-07-23T22:23:38;99981.82;;;20.01;79.53
51528;BME280;37612;51.768;21.590;2022-07-23T22:27:41;99978.46;;;19.96;79.86
51528;BME280;37612;51.768;21.590;2022-07-23T22:31:43;99971.55;;;19.92;79.96
51528;BME280;37612;51.768;21.590;2022-07-23T22:35:44;99971.80;;;19.89;80.01
51528;BME280;37612;51.768;21.590;2022-07-23T22:39:46;99982.41;;;19.85;80.18
51528;BME280;37612;51.768;21.590;2022-07-23T22:43:48;99981.11;;;19.81;80.16
51528;BME280;37612;51.768;21.590;2022-07-23T22:47:50;99979.73;;;19.78;80.52
51528;BME280;37612;51.768;21.590;2022-07-23T22:51:52;99980.80;;;19.71;80.74
51528;BME280;37612;51.768;21.590;2022-07-23T22:55:54;99981.80;;;19.74;80.61
51528;BME280;37612;51.768;21.590;2022-07-23T22:59:58;99984.12;;;19.72;80.68